Jerseyville, IL

11:49 AM CST on February 11, 2016 (GMT -0600)
Lake of Dreams | | Change Station
CLOSE
Current Station
Personal Weather Station
Location: Jerseyville, IL
Elevation: 577 ft
Nearby Weather Stations

Elev 577 ft 39.06 °N, 90.35 °W | Updated 9 minutes ago

Clear
Clear
29.8 °F
Feels Like 25 °F
N
4.2
Wind Variable Wind from NNE

Today
High -- | Low -- °F
--% Chance of Precip.
Yesterday
High -- | Low -- °F
Precip. -- in
Pressure 30.38 in
Visibility 10.0 miles
Clouds Clear
Windchill 25 °F
Dew Point 11 °F
Humidity 44%
Rainfall in
Snow Depth Not available.
6:58 AM 5:33 PM
Waxing Crescent, 13% visible
METAR KSET 111654Z AUTO 03003KT 10SM CLR M04/M11 A3036 RMK AO2 SLP285 T10391111
Pressure 30.38 in
Visibility 10.0 miles
Clouds Clear
Windchill 25 °F
Dew Point 11 °F
Humidity 44%
Rainfall in
Snow Depth Not available.
6:58 AM 5:33 PM
Waxing Crescent, 13% visible
METAR KSET 111654Z AUTO 03003KT 10SM CLR M04/M11 A3036 RMK AO2 SLP285 T10391111

10-Day Weather Forecast

Almanac

Astronomy

Feb. 11, 2016 Rise Set
Actual Time
Civil Twilight
Nautical Twilight
Astronomical Twilight
Moon
Length of Visible Light
Length of Day
Tomorrow will be .
, % of the Moon is Illuminated

Today's Extremes

State Highs State Lows

Community

WunderPhotos

Upload Photos

1,892,113 photos uploaded!

WunderBlog® & News

Nearby

Air Quality

  Air Quality AQ Index Pollutant
Not available.

Snow Depth

Station Depth Elevation

Earthquake Activity

City Distance Mag. Time & Date
Minimum magnitude displayed is 2.5.

Coastal Water Temperatures

Place Temperature

Stations

Nearby Weather Stations

Station Location Temp. Windchill Dew Point Humidity Wind Precip. Elev Updated Type
                   

Watches & Warnings

There are currently no watches in effect.